createdAt,value
2019-02-23T00:01:18.764Z,22.55
2019-02-23T00:03:52.445Z,25.17
2019-02-23T00:06:29.737Z,22.22
2019-02-23T00:09:00.026Z,22.35
2019-02-23T00:11:32.905Z,21.77
2019-02-23T00:14:05.366Z,27.10
2019-02-23T00:16:38.065Z,26.10
2019-02-23T00:19:10.948Z,23.80
2019-02-23T00:21:43.747Z,24.25
2019-02-23T00:24:16.846Z,21.45
2019-02-23T00:26:49.024Z,20.82
2019-02-23T00:29:21.484Z,21.77
2019-02-23T00:31:53.825Z,20.75
2019-02-23T00:34:25.966Z,23.20
2019-02-23T00:36:59.006Z,21.27
2019-02-23T00:39:31.806Z,21.80
2019-02-23T00:42:04.246Z,22.17
2019-02-23T00:44:36.865Z,22.02
2019-02-23T00:47:10.028Z,23.42
2019-02-23T00:49:42.024Z,20.68
2019-02-23T00:52:14.704Z,19.67
2019-02-23T00:54:47.265Z,21.17
2019-02-23T00:57:19.345Z,20.43
2019-02-23T00:59:51.804Z,21.20
2019-02-23T01:02:25.364Z,19.95
2019-02-23T01:04:58.866Z,23.85
2019-02-23T01:07:32.205Z,21.35
2019-02-23T01:10:04.285Z,20.75
2019-02-23T01:12:36.507Z,20.90
2019-02-23T01:15:13.925Z,21.27
2019-02-23T01:17:46.866Z,22.30
2019-02-23T01:20:19.669Z,21.97
2019-02-23T01:22:52.244Z,24.47
2019-02-23T01:25:25.245Z,20.23
2019-02-23T01:27:57.667Z,20.55
2019-02-23T01:30:30.146Z,18.80
2019-02-23T01:33:02.825Z,19.48
2019-02-23T01:35:36.307Z,19.40
2019-02-23T01:38:09.357Z,20.27
2019-02-23T01:40:43.086Z,19.15
2019-02-23T01:43:15.045Z,17.65
2019-02-23T01:45:48.026Z,19.98
2019-02-23T01:48:20.964Z,19.60
2019-02-23T01:50:54.244Z,19.40
2019-02-23T01:53:27.285Z,20.60
2019-02-23T01:55:59.845Z,17.82
2019-02-23T01:58:32.764Z,19.77
2019-02-23T02:01:06.225Z,19.75
2019-02-23T02:03:39.145Z,19.00
2019-02-23T02:06:11.305Z,19.35
2019-02-23T02:08:44.367Z,19.05
2019-02-23T02:11:17.764Z,20.25
2019-02-23T02:13:50.485Z,20.95
2019-02-23T02:16:24.085Z,21.23
2019-02-23T02:18:56.887Z,19.10
2019-02-23T02:21:29.164Z,19.00
2019-02-23T02:24:02.165Z,18.35
2019-02-23T02:26:34.664Z,20.05
2019-02-23T02:29:07.726Z,20.08
2019-02-23T02:31:39.867Z,18.67
2019-02-23T02:34:19.312Z,16.82
2019-02-23T02:36:51.506Z,17.50
2019-02-23T02:39:24.664Z,18.15
2019-02-23T02:41:56.207Z,16.37
2019-02-23T02:44:29.044Z,18.52
2019-02-23T02:47:02.087Z,21.45
2019-02-23T02:49:35.006Z,17.40
2019-02-23T02:52:08.066Z,19.95
2019-02-23T02:54:40.207Z,21.93
2019-02-23T02:57:13.186Z,21.30
2019-02-23T02:59:45.025Z,24.18
2019-02-23T03:02:18.265Z,21.85
2019-02-23T03:04:50.785Z,20.55
2019-02-23T03:07:23.316Z,19.82
2019-02-23T03:09:55.384Z,21.97
2019-02-23T03:12:27.685Z,21.68
2019-02-23T03:15:00.285Z,22.60
2019-02-23T03:17:32.785Z,23.45
2019-02-23T03:20:05.672Z,21.25
2019-02-23T03:22:38.266Z,19.05
2019-02-23T03:25:10.308Z,19.55
2019-02-23T03:27:43.345Z,21.68
2019-02-23T03:30:15.989Z,19.90
2019-02-23T03:32:48.571Z,18.45
2019-02-23T03:35:21.086Z,22.17
2019-02-23T03:37:53.384Z,22.05
2019-02-23T03:40:26.025Z,19.77
2019-02-23T03:42:58.515Z,20.05
2019-02-23T03:45:30.926Z,23.70
2019-02-23T03:48:03.746Z,22.17
2019-02-23T03:50:36.032Z,21.97
2019-02-23T03:53:08.565Z,20.00
2019-02-23T03:55:41.504Z,21.45
2019-02-23T03:58:13.825Z,19.40
2019-02-23T04:00:46.066Z,22.80
2019-02-23T04:03:19.723Z,21.93
2019-02-23T04:05:51.665Z,24.35
2019-02-23T04:08:24.305Z,27.22
2019-02-23T04:10:57.206Z,25.30
2019-02-23T04:13:29.509Z,22.90
2019-02-23T04:16:02.126Z,22.80
2019-02-23T04:18:35.465Z,23.62
2019-02-23T04:21:08.284Z,25.00
2019-02-23T04:23:40.823Z,25.30
2019-02-23T04:26:13.486Z,25.45
2019-02-23T04:28:46.465Z,25.05
2019-02-23T04:31:18.330Z,22.22
2019-02-23T04:33:51.125Z,26.62
2019-02-23T04:36:24.305Z,24.70
2019-02-23T04:38:57.384Z,23.98
2019-02-23T04:41:29.688Z,25.10
2019-02-23T04:44:02.225Z,25.05
2019-02-23T04:46:35.084Z,22.40
2019-02-23T04:49:07.684Z,22.07
2019-02-23T04:51:40.505Z,24.25
2019-02-23T04:54:12.724Z,23.77
2019-02-23T04:56:44.687Z,25.37
2019-02-23T04:59:17.965Z,24.85
2019-02-23T05:01:50.064Z,21.27
2019-02-23T05:04:22.524Z,24.63
2019-02-23T05:06:56.009Z,24.00
2019-02-23T05:09:29.445Z,23.50
2019-02-23T05:12:02.905Z,30.35
2019-02-23T05:14:36.246Z,24.27
2019-02-23T05:17:08.365Z,23.83
2019-02-23T05:19:40.645Z,23.05
2019-02-23T05:22:13.225Z,24.10
2019-02-23T05:24:45.685Z,25.65
2019-02-23T05:27:17.910Z,24.75
2019-02-23T05:29:49.885Z,28.07
2019-02-23T05:32:22.270Z,24.82
2019-02-23T05:34:54.605Z,25.65
2019-02-23T05:37:26.825Z,23.22
2019-02-23T05:39:59.226Z,22.20
2019-02-23T05:42:32.273Z,28.65
2019-02-23T05:45:04.885Z,23.87
2019-02-23T05:47:37.306Z,20.08
2019-02-23T05:50:09.921Z,22.80
2019-02-23T05:52:43.364Z,22.48
2019-02-23T05:55:17.265Z,21.95
2019-02-23T05:57:50.527Z,23.70
2019-02-23T06:00:24.205Z,23.62
2019-02-23T06:02:56.784Z,22.93
2019-02-23T06:05:29.546Z,24.30
2019-02-23T06:08:02.991Z,21.65
2019-02-23T06:10:35.026Z,23.35
2019-02-23T06:13:07.386Z,24.30
2019-02-23T06:15:39.765Z,26.42
2019-02-23T06:18:12.209Z,28.10
2019-02-23T06:20:44.467Z,25.97
2019-02-23T06:23:16.813Z,20.65
2019-02-23T06:25:49.705Z,22.50
2019-02-23T06:28:21.725Z,22.85
2019-02-23T06:30:54.206Z,22.30
2019-02-23T06:33:27.145Z,23.85
2019-02-23T06:35:59.266Z,23.00
2019-02-23T06:38:31.628Z,22.62
2019-02-23T06:41:05.166Z,23.85
2019-02-23T06:43:37.445Z,24.35
2019-02-23T06:46:09.865Z,24.12
2019-02-23T06:48:43.184Z,22.82
2019-02-23T06:51:15.446Z,23.57
2019-02-23T06:53:47.284Z,23.20
2019-02-23T06:56:19.626Z,20.85
2019-02-23T06:58:51.992Z,21.95
2019-02-23T07:01:25.107Z,24.10
2019-02-23T07:03:57.866Z,21.17
2019-02-23T07:06:30.924Z,21.52
2019-02-23T07:09:03.045Z,24.12
2019-02-23T07:11:35.287Z,23.42
2019-02-23T07:14:08.145Z,23.77
2019-02-23T07:16:40.086Z,21.62
2019-02-23T07:19:12.566Z,23.90
2019-02-23T07:21:44.865Z,23.50
2019-02-23T07:24:17.505Z,24.75
2019-02-23T07:26:50.024Z,21.30
2019-02-23T07:29:22.603Z,23.90
2019-02-23T07:31:55.307Z,25.10
2019-02-23T07:34:27.830Z,22.48
2019-02-23T07:37:01.108Z,26.55
2019-02-23T07:39:33.327Z,23.77
2019-02-23T07:42:05.904Z,26.62
2019-02-23T07:44:38.825Z,23.73
2019-02-23T07:47:12.207Z,24.98
2019-02-23T07:49:46.063Z,26.55
2019-02-23T07:52:25.973Z,25.60
2019-02-23T07:54:53.538Z,24.45
2019-02-23T07:57:26.606Z,29.10
2019-02-23T07:59:59.149Z,25.52
2019-02-23T08:02:31.346Z,28.60
2019-02-23T08:05:04.425Z,26.17
2019-02-23T08:07:39.710Z,25.97
2019-02-23T08:10:12.283Z,28.00
2019-02-23T08:12:44.865Z,28.25
2019-02-23T08:15:17.927Z,27.17
2019-02-23T08:17:50.884Z,26.77
2019-02-23T08:20:23.665Z,28.90
2019-02-23T08:22:56.666Z,27.05
2019-02-23T08:25:29.560Z,27.37
2019-02-23T08:28:01.868Z,25.75
2019-02-23T08:30:34.865Z,25.75
2019-02-23T08:33:08.145Z,26.42
2019-02-23T08:35:41.145Z,26.25
2019-02-23T08:38:14.746Z,38.67
2019-02-23T08:40:47.565Z,26.60
2019-02-23T08:43:20.797Z,24.25
2019-02-23T08:45:53.226Z,25.72
2019-02-23T08:48:27.265Z,25.88
2019-02-23T08:50:59.826Z,20.55
2019-02-23T08:53:32.786Z,22.52
2019-02-23T08:56:05.813Z,20.10
2019-02-23T08:58:38.268Z,23.18
2019-02-23T09:01:11.321Z,24.55
2019-02-23T09:03:44.203Z,32.00
2019-02-23T09:06:17.162Z,27.98
2019-02-23T09:08:50.242Z,37.88
2019-02-23T09:11:22.842Z,30.15
2019-02-23T09:13:55.801Z,27.82
2019-02-23T09:16:28.802Z,26.80
2019-02-23T09:19:01.342Z,25.60
2019-02-23T09:21:33.722Z,26.40
2019-02-23T09:24:07.061Z,38.85
2019-02-23T09:26:40.111Z,25.50
2019-02-23T09:29:13.162Z,26.40
2019-02-23T09:31:45.782Z,30.88
2019-02-23T09:34:18.342Z,32.85
2019-02-23T09:36:50.899Z,25.88
2019-02-23T09:39:23.342Z,28.65
2019-02-23T09:42:07.018Z,23.42
2019-02-23T09:44:29.621Z,30.15
2019-02-23T09:47:02.802Z,27.30
2019-02-23T09:49:35.002Z,25.70
2019-02-23T09:52:07.161Z,31.30
2019-02-23T09:54:40.181Z,29.48
2019-02-23T09:57:13.776Z,22.58
2019-02-23T09:59:47.483Z,33.20
2019-02-23T10:02:21.041Z,30.37
2019-02-23T10:04:53.882Z,24.90
2019-02-23T10:07:26.002Z,23.15
2019-02-23T10:09:58.901Z,21.30
2019-02-23T10:12:31.582Z,18.70
2019-02-23T10:15:04.042Z,19.65
2019-02-23T10:17:36.541Z,25.85
2019-02-23T10:20:10.102Z,21.85
2019-02-23T10:22:42.667Z,21.52
2019-02-23T10:25:15.102Z,23.10
2019-02-23T10:27:47.866Z,28.60
2019-02-23T10:30:20.151Z,22.22
2019-02-23T10:32:52.844Z,20.25
2019-02-23T10:35:25.882Z,17.67
2019-02-23T10:37:58.661Z,34.95
2019-02-23T10:40:30.961Z,16.55
2019-02-23T10:43:04.281Z,23.52
2019-02-23T10:45:37.062Z,38.17
2019-02-23T10:48:10.542Z,18.10
2019-02-23T10:50:44.122Z,20.57
2019-02-23T10:53:16.982Z,21.95
2019-02-23T10:55:49.522Z,20.85
2019-02-23T10:58:22.363Z,18.80
2019-02-23T11:00:55.902Z,31.55
2019-02-23T11:03:28.021Z,20.55
2019-02-23T11:06:00.823Z,16.42
2019-02-23T11:08:33.722Z,14.07
2019-02-23T11:11:06.762Z,19.25
2019-02-23T11:13:39.702Z,18.00
2019-02-23T11:16:12.121Z,16.10
2019-02-23T11:18:45.202Z,12.75
2019-02-23T11:21:18.600Z,19.80
2019-02-23T11:23:50.780Z,16.70
2019-02-23T11:26:23.661Z,16.73
2019-02-23T11:28:56.148Z,21.55
2019-02-23T11:31:29.443Z,16.97
2019-02-23T11:34:01.600Z,15.53
2019-02-23T11:36:34.982Z,17.32
2019-02-23T11:39:07.721Z,23.02
2019-02-23T11:41:40.520Z,12.25
2019-02-23T11:44:14.100Z,13.13
2019-02-23T11:46:59.789Z,14.80
2019-02-23T11:49:20.080Z,15.53
2019-02-23T11:51:52.722Z,11.05
2019-02-23T11:54:25.180Z,14.15
2019-02-23T11:56:57.401Z,10.78
2019-02-23T11:59:30.081Z,12.85
2019-02-23T12:02:02.461Z,14.68
2019-02-23T12:04:34.841Z,10.38
2019-02-23T12:07:07.681Z,17.98
2019-02-23T12:09:41.183Z,16.55
2019-02-23T12:12:13.321Z,11.05
2019-02-23T12:14:45.624Z,13.80
2019-02-23T12:17:18.381Z,15.38
2019-02-23T12:19:50.701Z,17.98
2019-02-23T12:22:22.981Z,13.05
2019-02-23T12:24:55.599Z,11.40
2019-02-23T12:27:28.523Z,14.60
2019-02-23T12:30:00.800Z,9.37
2019-02-23T12:32:33.825Z,12.35
2019-02-23T12:35:06.221Z,14.13
2019-02-23T12:37:39.195Z,18.00
2019-02-23T12:40:11.800Z,46.77
2019-02-23T12:42:44.660Z,12.50
2019-02-23T12:45:17.160Z,13.17
2019-02-23T12:47:51.230Z,8.93
2019-02-23T12:50:23.521Z,15.50
2019-02-23T12:52:56.379Z,14.03
2019-02-23T12:55:29.340Z,11.67
2019-02-23T12:58:02.060Z,10.63
2019-02-23T13:00:34.421Z,16.20
2019-02-23T13:03:07.278Z,13.57
2019-02-23T13:05:41.200Z,16.83
2019-02-23T13:08:14.519Z,17.23
2019-02-23T13:10:47.320Z,19.27
2019-02-23T13:13:33.241Z,10.48
2019-02-23T13:16:15.962Z,12.98
2019-02-23T13:19:36.260Z,17.73
2019-02-23T13:22:48.822Z,11.73
2019-02-23T13:25:47.260Z,15.08
2019-02-23T13:28:44.629Z,12.93
2019-02-23T13:31:49.981Z,12.58
2019-02-23T13:35:11.961Z,11.88
2019-02-23T13:38:21.119Z,13.20
2019-02-23T13:41:40.581Z,10.00
2019-02-23T13:44:44.360Z,12.45
2019-02-23T13:48:11.479Z,7.65
2019-02-23T13:51:16.819Z,5.17
2019-02-23T13:54:38.425Z,15.10
2019-02-23T13:57:12.420Z,10.05
2019-02-23T14:00:11.121Z,12.55
2019-02-23T14:03:10.346Z,10.23
2019-02-23T14:06:13.099Z,6.60
2019-02-23T14:09:23.268Z,5.95
2019-02-23T14:12:39.321Z,5.22
2019-02-23T14:15:57.039Z,6.80
2019-02-23T14:18:54.941Z,5.30
2019-02-23T14:22:02.540Z,7.22
2019-02-23T14:25:07.200Z,6.70
2019-02-23T14:28:14.560Z,13.05
2019-02-23T14:31:14.741Z,6.05
2019-02-23T14:34:21.664Z,6.70
2019-02-23T14:37:21.641Z,9.50
2019-02-23T14:40:36.020Z,4.90
2019-02-23T14:43:32.640Z,5.17
2019-02-23T14:47:05.862Z,4.83
2019-02-23T14:50:19.882Z,7.25
2019-02-23T14:53:24.007Z,7.85
2019-02-23T14:56:36.488Z,6.62
2019-02-23T14:59:45.621Z,5.35
2019-02-23T15:02:48.180Z,6.95
2019-02-23T15:05:38.680Z,11.22
2019-02-23T15:08:40.941Z,9.25
2019-02-23T15:11:48.660Z,8.40
2019-02-23T15:14:55.479Z,7.10
2019-02-23T15:17:48.921Z,6.35
2019-02-23T15:20:56.601Z,5.72
2019-02-23T15:24:09.760Z,24.18
2019-02-23T15:27:23.781Z,6.37
2019-02-23T15:30:25.301Z,5.50
2019-02-23T15:33:24.420Z,5.20
2019-02-23T15:36:15.159Z,9.70
2019-02-23T15:39:13.560Z,7.28
2019-02-23T15:42:24.508Z,5.25
2019-02-23T15:45:34.603Z,6.75
2019-02-23T15:48:29.719Z,8.03
2019-02-23T15:51:02.110Z,6.78
2019-02-23T15:53:34.949Z,6.08
2019-02-23T15:56:07.102Z,10.23
2019-02-23T15:58:39.960Z,8.80
2019-02-23T16:01:12.881Z,4.75
2019-02-23T16:03:45.940Z,8.40
2019-02-23T16:06:19.061Z,18.73
2019-02-23T16:08:50.659Z,9.68
2019-02-23T16:11:23.479Z,7.25
2019-02-23T16:13:56.980Z,6.37
2019-02-23T16:16:29.943Z,5.95
2019-02-23T16:19:02.422Z,4.65
2019-02-23T16:21:35.062Z,10.48
2019-02-23T16:24:08.341Z,5.85
2019-02-23T16:26:40.922Z,10.40
2019-02-23T16:29:13.620Z,7.80
2019-02-23T16:31:46.839Z,9.28
2019-02-23T16:34:19.684Z,8.35
2019-02-23T16:36:52.141Z,8.73
2019-02-23T16:39:24.367Z,5.55
2019-02-23T16:41:57.142Z,10.05
2019-02-23T16:44:29.301Z,10.08
2019-02-23T16:47:01.721Z,14.85
2019-02-23T16:49:33.800Z,12.88
2019-02-23T16:52:09.128Z,14.40
2019-02-23T16:54:40.962Z,8.13
2019-02-23T16:57:13.707Z,4.83
2019-02-23T16:59:46.244Z,5.55
2019-02-23T17:02:18.740Z,13.48
2019-02-23T17:04:53.767Z,5.90
2019-02-23T17:07:26.380Z,5.80
2019-02-23T17:09:59.424Z,6.35
2019-02-23T17:12:32.940Z,8.78
2019-02-23T17:15:06.622Z,11.43
2019-02-23T17:17:38.840Z,7.65
2019-02-23T17:20:11.928Z,9.43
2019-02-23T17:22:44.138Z,13.72
2019-02-23T17:25:16.339Z,9.73
2019-02-23T17:27:49.474Z,10.65
2019-02-23T17:30:22.102Z,8.53
2019-02-23T17:32:56.032Z,12.68
2019-02-23T17:35:28.800Z,13.50
2019-02-23T17:38:15.485Z,10.85
2019-02-23T17:40:36.719Z,9.83
2019-02-23T17:43:09.740Z,10.05
2019-02-23T17:45:42.339Z,8.58
2019-02-23T17:48:14.639Z,8.28
2019-02-23T17:50:47.301Z,11.80
2019-02-23T17:53:20.100Z,12.10
2019-02-23T17:55:53.160Z,9.70
2019-02-23T17:58:24.019Z,11.05
2019-02-23T18:00:56.821Z,9.83
2019-02-23T18:03:29.961Z,13.45
2019-02-23T18:06:02.221Z,11.12
2019-02-23T18:08:35.040Z,7.72
2019-02-23T18:11:08.340Z,8.90
2019-02-23T18:13:40.461Z,13.80
2019-02-23T18:16:12.599Z,16.32
2019-02-23T18:18:45.620Z,12.53
2019-02-23T18:21:17.741Z,10.63
2019-02-23T18:23:50.241Z,9.10
2019-02-23T18:26:23.320Z,8.38
2019-02-23T18:28:55.320Z,12.28
2019-02-23T18:31:27.988Z,13.90
2019-02-23T18:34:00.841Z,11.78
2019-02-23T18:36:32.739Z,15.65
2019-02-23T18:39:06.780Z,9.88
2019-02-23T18:41:39.063Z,9.38
2019-02-23T18:44:12.140Z,11.45
2019-02-23T18:46:44.980Z,10.32
2019-02-23T18:49:17.280Z,11.85
2019-02-23T18:51:49.659Z,13.20
2019-02-23T18:54:23.221Z,11.88
2019-02-23T18:56:56.041Z,14.03
2019-02-23T18:59:28.199Z,15.40
2019-02-23T19:02:00.700Z,13.88
2019-02-23T19:04:33.061Z,14.43
2019-02-23T19:07:06.400Z,17.35
2019-02-23T19:09:39.181Z,16.20
2019-02-23T19:12:12.020Z,15.80
2019-02-23T19:14:44.541Z,18.57
2019-02-23T19:17:17.325Z,13.70
2019-02-23T19:19:50.540Z,13.35
2019-02-23T19:22:22.759Z,11.53
2019-02-23T19:24:55.501Z,10.53
2019-02-23T19:27:27.740Z,12.85
2019-02-23T19:30:00.640Z,9.85
2019-02-23T19:32:33.400Z,14.10
2019-02-23T19:35:05.482Z,10.98
2019-02-23T19:37:38.859Z,11.50
2019-02-23T19:40:11.802Z,10.48
2019-02-23T19:42:44.482Z,10.00
2019-02-23T19:45:17.054Z,10.85
2019-02-23T19:47:50.061Z,10.13
2019-02-23T19:50:29.640Z,11.20
2019-02-23T19:53:01.966Z,9.60
2019-02-23T19:55:34.341Z,11.08
2019-02-23T19:58:07.342Z,9.85
2019-02-23T20:00:40.681Z,12.33
2019-02-23T20:03:13.059Z,14.20
2019-02-23T20:05:46.580Z,15.03
2019-02-23T20:08:19.725Z,13.70
2019-02-23T20:10:51.700Z,11.03
2019-02-23T20:13:23.860Z,9.65
2019-02-23T20:15:56.704Z,11.65
2019-02-23T20:18:28.880Z,11.15
2019-02-23T20:21:00.781Z,12.23
2019-02-23T20:23:32.920Z,12.70
2019-02-23T20:26:05.881Z,15.80
2019-02-23T20:28:38.641Z,14.95
2019-02-23T20:31:11.162Z,11.70
2019-02-23T20:33:43.400Z,13.25
2019-02-23T20:36:16.683Z,13.28
2019-02-23T20:38:48.923Z,15.40
2019-02-23T20:41:22.500Z,10.80
2019-02-23T20:43:54.823Z,10.65
2019-02-23T20:46:27.166Z,10.82
2019-02-23T20:49:00.120Z,14.58
2019-02-23T20:51:34.104Z,14.35
2019-02-23T20:54:06.901Z,12.23
2019-02-23T20:56:39.079Z,12.58
2019-02-23T20:59:11.339Z,10.38
2019-02-23T21:01:44.402Z,11.38
2019-02-23T21:04:16.379Z,13.55
2019-02-23T21:06:49.240Z,9.80
2019-02-23T21:09:22.282Z,25.12
2019-02-23T21:11:55.442Z,20.12
2019-02-23T21:14:27.920Z,12.55
2019-02-23T21:17:01.321Z,10.18
2019-02-23T21:19:33.983Z,18.67
2019-02-23T21:22:07.026Z,9.55
2019-02-23T21:24:39.400Z,8.85
2019-02-23T21:27:13.241Z,11.50
2019-02-23T21:29:46.580Z,10.55
2019-02-23T21:32:19.380Z,10.72
2019-02-23T21:34:51.560Z,21.37
2019-02-23T21:37:24.360Z,13.93
2019-02-23T21:39:57.560Z,9.18
2019-02-23T21:42:30.462Z,10.28
2019-02-23T21:45:02.623Z,12.80
2019-02-23T21:47:35.400Z,12.90
2019-02-23T21:50:08.241Z,10.60
2019-02-23T21:52:41.812Z,10.15
2019-02-23T21:55:14.364Z,14.87
2019-02-23T21:57:47.440Z,12.85
2019-02-23T22:00:20.366Z,9.48
2019-02-23T22:02:53.420Z,9.80
2019-02-23T22:05:26.808Z,8.93
2019-02-23T22:07:59.301Z,11.35
2019-02-23T22:10:31.642Z,11.30
2019-02-23T22:13:03.756Z,14.40
2019-02-23T22:15:37.560Z,11.33
2019-02-23T22:18:09.608Z,9.10
2019-02-23T22:20:43.167Z,9.93
2019-02-23T22:23:15.881Z,10.48
2019-02-23T22:25:48.630Z,15.13
2019-02-23T22:28:20.537Z,11.05
2019-02-23T22:30:53.284Z,14.43
2019-02-23T22:33:26.102Z,12.70
2019-02-23T22:35:59.020Z,13.80
2019-02-23T22:38:32.361Z,11.65
2019-02-23T22:41:04.921Z,9.73
2019-02-23T22:43:38.441Z,13.88
2019-02-23T22:46:11.819Z,9.53
2019-02-23T22:48:44.040Z,11.05
2019-02-23T22:51:17.123Z,10.55
2019-02-23T22:53:49.819Z,10.68
2019-02-23T22:56:22.361Z,12.70
2019-02-23T22:58:54.843Z,16.65
2019-02-23T23:01:27.581Z,11.15
2019-02-23T23:04:00.823Z,10.72
2019-02-23T23:06:33.222Z,11.80
2019-02-23T23:09:08.019Z,10.35
2019-02-23T23:11:40.323Z,18.62
2019-02-23T23:14:12.920Z,11.80
2019-02-23T23:16:45.580Z,11.08
2019-02-23T23:19:17.760Z,12.68
2019-02-23T23:21:49.945Z,11.83
2019-02-23T23:24:23.481Z,16.97
2019-02-23T23:26:56.138Z,12.50
2019-02-23T23:29:28.699Z,12.98
2019-02-23T23:32:01.362Z,10.18
2019-02-23T23:34:34.040Z,10.40
2019-02-23T23:37:06.980Z,11.90
2019-02-23T23:39:39.280Z,11.50
2019-02-23T23:42:12.139Z,10.48
2019-02-23T23:44:45.219Z,12.18
2019-02-23T23:47:18.020Z,9.85
2019-02-23T23:49:50.320Z,10.60
2019-02-23T23:52:22.681Z,10.60
2019-02-23T23:54:56.060Z,10.68
2019-02-23T23:57:29.080Z,13.10
